sensor_id;sensor_type;location;lat;lon;timestamp;temperature;humidity
22682;DHT22;11508;50.856;4.380;2024-02-14T00:00:13;9.30;99.90
22682;DHT22;11508;50.856;4.380;2024-02-14T00:02:44;9.30;99.90
22682;DHT22;11508;50.856;4.380;2024-02-14T00:05:14;9.40;99.90
22682;DHT22;11508;50.856;4.380;2024-02-14T00:07:42;9.30;99.90
22682;DHT22;11508;50.856;4.380;2024-02-14T00:10:11;9.30;99.90
22682;DHT22;11508;50.856;4.380;2024-02-14T00:12:37;9.40;98.50
22682;DHT22;11508;50.856;4.380;2024-02-14T00:15:06;9.40;97.90
22682;DHT22;11508;50.856;4.380;2024-02-14T00:17:35;9.50;97.30
22682;DHT22;11508;50.856;4.380;2024-02-14T00:20:02;9.50;95.30
22682;DHT22;11508;50.856;4.380;2024-02-14T00:22:28;9.50;95.10
22682;DHT22;11508;50.856;4.380;2024-02-14T00:24:55;9.50;89.60
22682;DHT22;11508;50.856;4.380;2024-02-14T00:27:21;8.80;94.20
22682;DHT22;11508;50.856;4.380;2024-02-14T00:29:47;9.50;90.50
22682;DHT22;11508;50.856;4.380;2024-02-14T00:32:14;9.60;93.00
22682;DHT22;11508;50.856;4.380;2024-02-14T00:34:39;9.70;85.30
22682;DHT22;11508;50.856;4.380;2024-02-14T00:37:08;9.70;74.30
22682;DHT22;11508;50.856;4.380;2024-02-14T00:39:36;9.60;82.50
22682;DHT22;11508;50.856;4.380;2024-02-14T00:42:02;9.70;73.80
22682;DHT22;11508;50.856;4.380;2024-02-14T00:44:28;9.70;85.10
22682;DHT22;11508;50.856;4.380;2024-02-14T00:46:59;9.70;78.90
22682;DHT22;11508;50.856;4.380;2024-02-14T00:49:26;8.90;81.20
22682;DHT22;11508;50.856;4.380;2024-02-14T00:51:51;9.70;69.70
22682;DHT22;11508;50.856;4.380;2024-02-14T00:54:23;9.80;66.70
22682;DHT22;11508;50.856;4.380;2024-02-14T00:56:51;9.70;66.10
22682;DHT22;11508;50.856;4.380;2024-02-14T00:59:17;9.70;71.80
22682;DHT22;11508;50.856;4.380;2024-02-14T01:01:43;9.80;68.50
22682;DHT22;11508;50.856;4.380;2024-02-14T01:04:12;9.70;70.20
22682;DHT22;11508;50.856;4.380;2024-02-14T01:06:38;9.80;65.60
22682;DHT22;11508;50.856;4.380;2024-02-14T01:09:05;9.80;66.80
22682;DHT22;11508;50.856;4.380;2024-02-14T01:11:31;9.70;69.40
22682;DHT22;11508;50.856;4.380;2024-02-14T01:13:57;9.70;82.60
22682;DHT22;11508;50.856;4.380;2024-02-14T01:16:24;9.70;83.70
22682;DHT22;11508;50.856;4.380;2024-02-14T01:21:45;9.60;95.30
22682;DHT22;11508;50.856;4.380;2024-02-14T01:24:15;9.60;99.90
22682;DHT22;11508;50.856;4.380;2024-02-14T01:26:45;9.50;99.90
22682;DHT22;11508;50.856;4.380;2024-02-14T01:29:11;9.50;99.90
22682;DHT22;11508;50.856;4.380;2024-02-14T01:31:39;9.50;99.90
22682;DHT22;11508;50.856;4.380;2024-02-14T01:34:08;9.50;99.90
22682;DHT22;11508;50.856;4.380;2024-02-14T01:36:33;9.60;99.90
22682;DHT22;11508;50.856;4.380;2024-02-14T01:38:59;9.50;99.90
22682;DHT22;11508;50.856;4.380;2024-02-14T01:41:25;9.50;99.90
22682;DHT22;11508;50.856;4.380;2024-02-14T01:43:51;9.50;99.90
22682;DHT22;11508;50.856;4.380;2024-02-14T01:46:17;9.60;99.90
22682;DHT22;11508;50.856;4.380;2024-02-14T01:48:43;9.60;99.90
22682;DHT22;11508;50.856;4.380;2024-02-14T01:51:11;9.50;99.90
22682;DHT22;11508;50.856;4.380;2024-02-14T01:53:38;8.60;99.90
22682;DHT22;11508;50.856;4.380;2024-02-14T01:56:08;9.40;99.90
22682;DHT22;11508;50.856;4.380;2024-02-14T01:58:34;9.40;99.90
22682;DHT22;11508;50.856;4.380;2024-02-14T02:00:59;9.50;99.90
22682;DHT22;11508;50.856;4.380;2024-02-14T02:03:28;9.50;99.90
22682;DHT22;11508;50.856;4.380;2024-02-14T02:05:55;9.50;99.90
22682;DHT22;11508;50.856;4.380;2024-02-14T02:08:21;9.50;99.90
22682;DHT22;11508;50.856;4.380;2024-02-14T02:10:47;9.20;99.90
22682;DHT22;11508;50.856;4.380;2024-02-14T02:13:13;9.40;99.90
22682;DHT22;11508;50.856;4.380;2024-02-14T02:15:41;9.40;99.90
22682;DHT22;11508;50.856;4.380;2024-02-14T02:18:10;9.40;99.90
22682;DHT22;11508;50.856;4.380;2024-02-14T02:20:35;9.50;99.90
22682;DHT22;11508;50.856;4.380;2024-02-14T02:23:01;9.60;99.90
22682;DHT22;11508;50.856;4.380;2024-02-14T02:25:28;9.50;99.90
22682;DHT22;11508;50.856;4.380;2024-02-14T02:27:53;9.60;99.90
22682;DHT22;11508;50.856;4.380;2024-02-14T02:30:22;9.60;99.90
22682;DHT22;11508;50.856;4.380;2024-02-14T02:32:48;9.60;99.90
22682;DHT22;11508;50.856;4.380;2024-02-14T02:35:15;9.60;99.90
22682;DHT22;11508;50.856;4.380;2024-02-14T02:37:41;9.70;99.90
22682;DHT22;11508;50.856;4.380;2024-02-14T02:40:10;9.70;99.90
22682;DHT22;11508;50.856;4.380;2024-02-14T02:42:38;9.90;99.90
22682;DHT22;11508;50.856;4.380;2024-02-14T02:45:04;9.80;99.90
22682;DHT22;11508;50.856;4.380;2024-02-14T02:47:33;9.90;99.90
22682;DHT22;11508;50.856;4.380;2024-02-14T02:49:59;9.90;99.90
22682;DHT22;11508;50.856;4.380;2024-02-14T02:52:27;10.00;99.90
22682;DHT22;11508;50.856;4.380;2024-02-14T02:54:53;9.90;99.90
22682;DHT22;11508;50.856;4.380;2024-02-14T02:57:19;9.90;99.90
22682;DHT22;11508;50.856;4.380;2024-02-14T02:59:45;10.00;99.90
22682;DHT22;11508;50.856;4.380;2024-02-14T03:02:14;10.10;99.90
22682;DHT22;11508;50.856;4.380;2024-02-14T03:04:39;10.10;99.90
22682;DHT22;11508;50.856;4.380;2024-02-14T03:07:05;10.10;99.90
22682;DHT22;11508;50.856;4.380;2024-02-14T03:09:34;10.20;99.90
22682;DHT22;11508;50.856;4.380;2024-02-14T03:12:04;10.20;99.90
22682;DHT22;11508;50.856;4.380;2024-02-14T03:14:31;10.20;99.90
22682;DHT22;11508;50.856;4.380;2024-02-14T03:16:58;10.20;99.90
22682;DHT22;11508;50.856;4.380;2024-02-14T03:19:25;10.20;99.90
22682;DHT22;11508;50.856;4.380;2024-02-14T03:21:52;10.20;99.90
22682;DHT22;11508;50.856;4.380;2024-02-14T03:24:18;10.10;99.90
22682;DHT22;11508;50.856;4.380;2024-02-14T03:26:44;10.10;99.90
22682;DHT22;11508;50.856;4.380;2024-02-14T03:29:10;10.10;99.90
22682;DHT22;11508;50.856;4.380;2024-02-14T03:31:42;10.00;99.90
22682;DHT22;11508;50.856;4.380;2024-02-14T03:34:09;10.00;99.90
22682;DHT22;11508;50.856;4.380;2024-02-14T03:36:37;9.90;99.90
22682;DHT22;11508;50.856;4.380;2024-02-14T03:39:05;9.90;99.90
22682;DHT22;11508;50.856;4.380;2024-02-14T03:41:32;9.90;99.90
22682;DHT22;11508;50.856;4.380;2024-02-14T03:43:58;10.00;99.90
22682;DHT22;11508;50.856;4.380;2024-02-14T03:46:29;10.00;99.90
22682;DHT22;11508;50.856;4.380;2024-02-14T03:48:55;10.10;99.90
22682;DHT22;11508;50.856;4.380;2024-02-14T03:51:23;10.10;99.90
22682;DHT22;11508;50.856;4.380;2024-02-14T03:53:49;10.10;99.90
22682;DHT22;11508;50.856;4.380;2024-02-14T03:56:15;10.00;99.90
22682;DHT22;11508;50.856;4.380;2024-02-14T03:58:42;9.90;99.90
22682;DHT22;11508;50.856;4.380;2024-02-14T04:01:07;9.90;99.90
22682;DHT22;11508;50.856;4.380;2024-02-14T04:03:34;9.90;99.90
22682;DHT22;11508;50.856;4.380;2024-02-14T04:06:00;9.90;99.90
22682;DHT22;11508;50.856;4.380;2024-02-14T04:08:26;9.90;99.90
22682;DHT22;11508;50.856;4.380;2024-02-14T04:17:25;9.90;99.90
22682;DHT22;11508;50.856;4.380;2024-02-14T04:19:50;9.90;99.90
22682;DHT22;11508;50.856;4.380;2024-02-14T04:22:16;10.00;99.90
22682;DHT22;11508;50.856;4.380;2024-02-14T04:24:42;10.00;99.90
22682;DHT22;11508;50.856;4.380;2024-02-14T04:27:34;9.90;99.90
22682;DHT22;11508;50.856;4.380;2024-02-14T04:33:53;9.90;99.90
22682;DHT22;11508;50.856;4.380;2024-02-14T04:36:20;9.90;99.90
22682;DHT22;11508;50.856;4.380;2024-02-14T04:38:47;9.90;99.90
22682;DHT22;11508;50.856;4.380;2024-02-14T04:41:16;10.00;99.90
22682;DHT22;11508;50.856;4.380;2024-02-14T05:05:45;10.10;99.90
22682;DHT22;11508;50.856;4.380;2024-02-14T05:25:22;10.20;99.90
22682;DHT22;11508;50.856;4.380;2024-02-14T05:31:45;10.20;99.90
22682;DHT22;11508;50.856;4.380;2024-02-14T05:37:39;10.30;99.90
22682;DHT22;11508;50.856;4.380;2024-02-14T05:43:48;10.40;99.90
22682;DHT22;11508;50.856;4.380;2024-02-14T05:46:14;10.40;99.90
22682;DHT22;11508;50.856;4.380;2024-02-14T05:48:40;10.40;99.90
22682;DHT22;11508;50.856;4.380;2024-02-14T05:51:08;10.40;99.90
22682;DHT22;11508;50.856;4.380;2024-02-14T05:53:33;10.40;99.90
22682;DHT22;11508;50.856;4.380;2024-02-14T05:55:59;10.50;99.90
22682;DHT22;11508;50.856;4.380;2024-02-14T05:58:25;10.50;99.90
22682;DHT22;11508;50.856;4.380;2024-02-14T06:00:54;10.50;99.90
22682;DHT22;11508;50.856;4.380;2024-02-14T06:03:21;10.50;99.90
22682;DHT22;11508;50.856;4.380;2024-02-14T06:05:48;10.50;99.90
22682;DHT22;11508;50.856;4.380;2024-02-14T06:08:14;10.40;99.90
22682;DHT22;11508;50.856;4.380;2024-02-14T06:10:39;10.40;99.90
22682;DHT22;11508;50.856;4.380;2024-02-14T06:13:05;10.50;99.90
22682;DHT22;11508;50.856;4.380;2024-02-14T06:15:31;10.50;99.90
22682;DHT22;11508;50.856;4.380;2024-02-14T06:17:57;10.50;99.90
22682;DHT22;11508;50.856;4.380;2024-02-14T06:20:23;10.60;99.90
22682;DHT22;11508;50.856;4.380;2024-02-14T06:22:49;10.50;99.90
22682;DHT22;11508;50.856;4.380;2024-02-14T06:25:15;10.60;99.90
22682;DHT22;11508;50.856;4.380;2024-02-14T06:27:42;10.60;99.90
22682;DHT22;11508;50.856;4.380;2024-02-14T06:30:08;10.60;99.90
22682;DHT22;11508;50.856;4.380;2024-02-14T06:32:34;10.60;99.90
22682;DHT22;11508;50.856;4.380;2024-02-14T06:34:59;10.70;99.90
22682;DHT22;11508;50.856;4.380;2024-02-14T06:37:25;10.60;99.90
22682;DHT22;11508;50.856;4.380;2024-02-14T06:39:51;10.60;99.90
22682;DHT22;11508;50.856;4.380;2024-02-14T06:42:18;10.50;99.90
22682;DHT22;11508;50.856;4.380;2024-02-14T06:44:45;10.60;99.90
22682;DHT22;11508;50.856;4.380;2024-02-14T06:47:11;10.50;99.90
22682;DHT22;11508;50.856;4.380;2024-02-14T06:49:36;10.60;99.90
22682;DHT22;11508;50.856;4.380;2024-02-14T06:52:03;10.50;99.90
22682;DHT22;11508;50.856;4.380;2024-02-14T06:54:29;10.60;99.90
22682;DHT22;11508;50.856;4.380;2024-02-14T06:56:56;10.60;99.90
22682;DHT22;11508;50.856;4.380;2024-02-14T06:59:21;10.60;99.90
22682;DHT22;11508;50.856;4.380;2024-02-14T07:01:47;10.60;99.90
22682;DHT22;11508;50.856;4.380;2024-02-14T07:04:15;10.70;99.90
22682;DHT22;11508;50.856;4.380;2024-02-14T07:06:41;10.70;99.90
22682;DHT22;11508;50.856;4.380;2024-02-14T07:09:06;10.70;99.90
22682;DHT22;11508;50.856;4.380;2024-02-14T07:11:32;10.80;99.90
22682;DHT22;11508;50.856;4.380;2024-02-14T07:13:58;10.70;99.90
22682;DHT22;11508;50.856;4.380;2024-02-14T07:16:24;10.80;99.90
22682;DHT22;11508;50.856;4.380;2024-02-14T07:18:49;10.80;99.90
22682;DHT22;11508;50.856;4.380;2024-02-14T07:21:16;10.90;99.90
22682;DHT22;11508;50.856;4.380;2024-02-14T07:23:42;10.80;99.90
22682;DHT22;11508;50.856;4.380;2024-02-14T07:26:11;10.90;99.90
22682;DHT22;11508;50.856;4.380;2024-02-14T07:28:37;10.90;99.90
22682;DHT22;11508;50.856;4.380;2024-02-14T07:31:02;11.00;99.90
22682;DHT22;11508;50.856;4.380;2024-02-14T07:33:28;10.50;99.90
22682;DHT22;11508;50.856;4.380;2024-02-14T07:35:56;10.90;99.90
22682;DHT22;11508;50.856;4.380;2024-02-14T07:38:22;11.00;99.90
22682;DHT22;11508;50.856;4.380;2024-02-14T07:40:48;10.80;99.90
22682;DHT22;11508;50.856;4.380;2024-02-14T07:43:14;10.90;99.90
22682;DHT22;11508;50.856;4.380;2024-02-14T07:45:39;10.90;99.90
22682;DHT22;11508;50.856;4.380;2024-02-14T07:48:05;10.90;99.90
22682;DHT22;11508;50.856;4.380;2024-02-14T07:50:31;10.90;99.90
22682;DHT22;11508;50.856;4.380;2024-02-14T07:52:57;10.90;99.90
22682;DHT22;11508;50.856;4.380;2024-02-14T07:55:23;11.00;99.90
22682;DHT22;11508;50.856;4.380;2024-02-14T07:57:49;10.90;99.90
22682;DHT22;11508;50.856;4.380;2024-02-14T08:00:16;11.00;99.90
22682;DHT22;11508;50.856;4.380;2024-02-14T08:02:48;10.20;99.90
22682;DHT22;11508;50.856;4.380;2024-02-14T08:05:14;11.10;99.90
22682;DHT22;11508;50.856;4.380;2024-02-14T08:07:44;11.10;99.90
22682;DHT22;11508;50.856;4.380;2024-02-14T08:10:19;11.10;99.90
22682;DHT22;11508;50.856;4.380;2024-02-14T08:12:45;11.10;99.90
22682;DHT22;11508;50.856;4.380;2024-02-14T08:15:13;11.00;99.90
22682;DHT22;11508;50.856;4.380;2024-02-14T08:17:38;11.00;99.90
22682;DHT22;11508;50.856;4.380;2024-02-14T08:20:05;10.90;99.90
22682;DHT22;11508;50.856;4.380;2024-02-14T08:22:31;11.00;99.90
22682;DHT22;11508;50.856;4.380;2024-02-14T08:24:59;10.90;99.90
22682;DHT22;11508;50.856;4.380;2024-02-14T08:27:27;11.00;99.90
22682;DHT22;11508;50.856;4.380;2024-02-14T08:29:53;11.00;99.90
22682;DHT22;11508;50.856;4.380;2024-02-14T08:32:19;11.00;99.90
22682;DHT22;11508;50.856;4.380;2024-02-14T08:34:45;11.00;99.90
22682;DHT22;11508;50.856;4.380;2024-02-14T08:37:18;11.00;99.90
22682;DHT22;11508;50.856;4.380;2024-02-14T08:39:44;11.00;99.90
22682;DHT22;11508;50.856;4.380;2024-02-14T08:42:13;11.00;99.90
22682;DHT22;11508;50.856;4.380;2024-02-14T08:52:17;11.10;99.90
22682;DHT22;11508;50.856;4.380;2024-02-14T08:54:44;11.10;99.90
22682;DHT22;11508;50.856;4.380;2024-02-14T08:57:14;11.20;99.90
22682;DHT22;11508;50.856;4.380;2024-02-14T08:59:42;11.20;99.90
22682;DHT22;11508;50.856;4.380;2024-02-14T09:02:14;11.30;99.90
22682;DHT22;11508;50.856;4.380;2024-02-14T09:04:48;10.80;99.90
22682;DHT22;11508;50.856;4.380;2024-02-14T09:09:59;11.30;99.90
22682;DHT22;11508;50.856;4.380;2024-02-14T09:12:26;11.40;99.90
22682;DHT22;11508;50.856;4.380;2024-02-14T09:14:56;11.40;99.90
22682;DHT22;11508;50.856;4.380;2024-02-14T09:18:04;11.40;99.90
22682;DHT22;11508;50.856;4.380;2024-02-14T09:36:32;11.40;99.90
22682;DHT22;11508;50.856;4.380;2024-02-14T09:38:58;11.50;99.90
22682;DHT22;11508;50.856;4.380;2024-02-14T09:41:37;11.40;99.90
22682;DHT22;11508;50.856;4.380;2024-02-14T09:44:25;11.30;99.90
22682;DHT22;11508;50.856;4.380;2024-02-14T09:46:57;11.30;99.90
22682;DHT22;11508;50.856;4.380;2024-02-14T09:49:27;11.20;99.90
22682;DHT22;11508;50.856;4.380;2024-02-14T09:51:56;11.20;99.90
22682;DHT22;11508;50.856;4.380;2024-02-14T09:54:23;11.20;99.90
22682;DHT22;11508;50.856;4.380;2024-02-14T09:56:52;11.30;99.90
22682;DHT22;11508;50.856;4.380;2024-02-14T09:59:24;11.30;99.90
22682;DHT22;11508;50.856;4.380;2024-02-14T10:01:49;11.40;99.90
22682;DHT22;11508;50.856;4.380;2024-02-14T10:04:17;11.30;99.90
22682;DHT22;11508;50.856;4.380;2024-02-14T10:06:45;11.40;99.90
22682;DHT22;11508;50.856;4.380;2024-02-14T10:09:11;11.30;99.90
22682;DHT22;11508;50.856;4.380;2024-02-14T10:11:37;11.30;99.90
22682;DHT22;11508;50.856;4.380;2024-02-14T10:14:06;11.40;99.90
22682;DHT22;11508;50.856;4.380;2024-02-14T10:16:35;11.50;99.90
22682;DHT22;11508;50.856;4.380;2024-02-14T10:19:01;11.40;99.90
22682;DHT22;11508;50.856;4.380;2024-02-14T10:21:29;11.40;99.90
22682;DHT22;11508;50.856;4.380;2024-02-14T10:24:01;11.30;99.90
22682;DHT22;11508;50.856;4.380;2024-02-14T10:26:28;11.40;99.90
22682;DHT22;11508;50.856;4.380;2024-02-14T10:28:58;11.30;99.90
22682;DHT22;11508;50.856;4.380;2024-02-14T10:31:25;11.50;99.90
22682;DHT22;11508;50.856;4.380;2024-02-14T10:33:52;11.40;99.90
22682;DHT22;11508;50.856;4.380;2024-02-14T10:36:20;11.50;99.90
22682;DHT22;11508;50.856;4.380;2024-02-14T10:38:47;11.40;99.90
22682;DHT22;11508;50.856;4.380;2024-02-14T10:41:17;11.50;99.90
22682;DHT22;11508;50.856;4.380;2024-02-14T10:43:43;11.40;99.90
22682;DHT22;11508;50.856;4.380;2024-02-14T10:46:20;11.40;99.90
22682;DHT22;11508;50.856;4.380;2024-02-14T10:48:53;11.50;99.90
22682;DHT22;11508;50.856;4.380;2024-02-14T10:51:25;11.60;99.90
22682;DHT22;11508;50.856;4.380;2024-02-14T10:54:14;11.50;99.90
22682;DHT22;11508;50.856;4.380;2024-02-14T10:56:45;11.60;99.90
22682;DHT22;11508;50.856;4.380;2024-02-14T10:59:17;11.50;99.90
22682;DHT22;11508;50.856;4.380;2024-02-14T11:01:46;11.60;99.90
22682;DHT22;11508;50.856;4.380;2024-02-14T11:04:12;11.60;99.90
22682;DHT22;11508;50.856;4.380;2024-02-14T11:06:46;11.60;99.90
22682;DHT22;11508;50.856;4.380;2024-02-14T11:09:14;11.50;99.90
22682;DHT22;11508;50.856;4.380;2024-02-14T11:11:42;11.60;99.90
22682;DHT22;11508;50.856;4.380;2024-02-14T11:14:18;11.70;99.90
22682;DHT22;11508;50.856;4.380;2024-02-14T11:16:47;11.80;99.90
22682;DHT22;11508;50.856;4.380;2024-02-14T11:19:14;11.80;99.90
22682;DHT22;11508;50.856;4.380;2024-02-14T11:21:48;11.80;99.90
22682;DHT22;11508;50.856;4.380;2024-02-14T11:24:15;11.70;99.90
22682;DHT22;11508;50.856;4.380;2024-02-14T11:26:51;11.70;99.90
22682;DHT22;11508;50.856;4.380;2024-02-14T11:29:20;11.70;99.90
22682;DHT22;11508;50.856;4.380;2024-02-14T11:31:46;11.80;99.90
22682;DHT22;11508;50.856;4.380;2024-02-14T11:34:14;11.90;99.90
22682;DHT22;11508;50.856;4.380;2024-02-14T11:36:42;11.80;99.90
22682;DHT22;11508;50.856;4.380;2024-02-14T11:39:08;11.90;99.90
22682;DHT22;11508;50.856;4.380;2024-02-14T11:41:34;11.90;99.90
22682;DHT22;11508;50.856;4.380;2024-02-14T11:44:06;11.90;99.90
22682;DHT22;11508;50.856;4.380;2024-02-14T11:46:33;11.90;99.90
22682;DHT22;11508;50.856;4.380;2024-02-14T11:49:00;11.90;99.90
22682;DHT22;11508;50.856;4.380;2024-02-14T11:51:31;11.80;99.90
22682;DHT22;11508;50.856;4.380;2024-02-14T11:53:58;11.90;99.90
22682;DHT22;11508;50.856;4.380;2024-02-14T11:56:35;11.80;99.90
22682;DHT22;11508;50.856;4.380;2024-02-14T11:59:02;11.90;99.90
22682;DHT22;11508;50.856;4.380;2024-02-14T12:01:31;11.90;99.90
22682;DHT22;11508;50.856;4.380;2024-02-14T12:03:58;11.90;99.90
22682;DHT22;11508;50.856;4.380;2024-02-14T12:06:27;12.00;99.90
22682;DHT22;11508;50.856;4.380;2024-02-14T12:08:54;12.00;99.90
22682;DHT22;11508;50.856;4.380;2024-02-14T12:11:20;12.00;99.90
22682;DHT22;11508;50.856;4.380;2024-02-14T12:13:50;12.10;99.90
22682;DHT22;11508;50.856;4.380;2024-02-14T12:16:16;12.10;99.90
22682;DHT22;11508;50.856;4.380;2024-02-14T12:18:44;12.10;99.90
22682;DHT22;11508;50.856;4.380;2024-02-14T12:21:10;12.30;99.90
22682;DHT22;11508;50.856;4.380;2024-02-14T12:23:36;12.30;99.90
22682;DHT22;11508;50.856;4.380;2024-02-14T12:26:03;12.30;99.90
22682;DHT22;11508;50.856;4.380;2024-02-14T12:28:30;12.30;99.90
22682;DHT22;11508;50.856;4.380;2024-02-14T12:30:57;12.30;99.90
22682;DHT22;11508;50.856;4.380;2024-02-14T12:33:24;12.30;99.90
22682;DHT22;11508;50.856;4.380;2024-02-14T12:35:51;12.30;99.90
22682;DHT22;11508;50.856;4.380;2024-02-14T12:38:19;12.40;99.90
22682;DHT22;11508;50.856;4.380;2024-02-14T12:40:45;12.40;99.90
22682;DHT22;11508;50.856;4.380;2024-02-14T12:43:13;12.50;99.90
22682;DHT22;11508;50.856;4.380;2024-02-14T12:45:40;12.40;99.90
22682;DHT22;11508;50.856;4.380;2024-02-14T12:48:23;12.50;99.90
22682;DHT22;11508;50.856;4.380;2024-02-14T12:50:58;12.50;99.90
22682;DHT22;11508;50.856;4.380;2024-02-14T12:53:51;12.50;99.90
22682;DHT22;11508;50.856;4.380;2024-02-14T12:56:59;12.50;99.90
22682;DHT22;11508;50.856;4.380;2024-02-14T13:02:54;12.50;99.90
22682;DHT22;11508;50.856;4.380;2024-02-14T13:05:24;12.50;99.90
22682;DHT22;11508;50.856;4.380;2024-02-14T13:07:53;12.40;99.90
22682;DHT22;11508;50.856;4.380;2024-02-14T13:10:19;12.50;99.90
22682;DHT22;11508;50.856;4.380;2024-02-14T13:12:45;12.50;99.90
22682;DHT22;11508;50.856;4.380;2024-02-14T13:15:11;12.50;99.90
22682;DHT22;11508;50.856;4.380;2024-02-14T13:17:38;12.40;99.90
22682;DHT22;11508;50.856;4.380;2024-02-14T13:20:04;12.40;99.90
22682;DHT22;11508;50.856;4.380;2024-02-14T13:22:30;12.40;99.90
22682;DHT22;11508;50.856;4.380;2024-02-14T13:24:58;12.40;99.90
22682;DHT22;11508;50.856;4.380;2024-02-14T13:27:31;12.30;99.90
22682;DHT22;11508;50.856;4.380;2024-02-14T13:29:57;12.40;99.90
22682;DHT22;11508;50.856;4.380;2024-02-14T13:32:23;12.40;99.90
22682;DHT22;11508;50.856;4.380;2024-02-14T13:34:49;12.40;99.90
22682;DHT22;11508;50.856;4.380;2024-02-14T13:37:16;12.40;99.90
22682;DHT22;11508;50.856;4.380;2024-02-14T13:39:43;12.40;99.90
22682;DHT22;11508;50.856;4.380;2024-02-14T13:42:09;12.40;99.90
22682;DHT22;11508;50.856;4.380;2024-02-14T13:44:35;12.30;99.90
22682;DHT22;11508;50.856;4.380;2024-02-14T13:47:00;12.40;99.90
22682;DHT22;11508;50.856;4.380;2024-02-14T13:49:26;12.40;99.90
22682;DHT22;11508;50.856;4.380;2024-02-14T13:51:53;12.40;99.90
22682;DHT22;11508;50.856;4.380;2024-02-14T13:54:19;12.40;99.90
22682;DHT22;11508;50.856;4.380;2024-02-14T13:56:45;12.40;99.90
22682;DHT22;11508;50.856;4.380;2024-02-14T13:59:14;12.40;99.90
22682;DHT22;11508;50.856;4.380;2024-02-14T14:01:40;12.40;99.90
22682;DHT22;11508;50.856;4.380;2024-02-14T14:04:05;12.50;99.90
22682;DHT22;11508;50.856;4.380;2024-02-14T14:06:31;12.50;99.90
22682;DHT22;11508;50.856;4.380;2024-02-14T14:08:58;12.50;99.90
22682;DHT22;11508;50.856;4.380;2024-02-14T14:11:28;12.50;99.90
22682;DHT22;11508;50.856;4.380;2024-02-14T14:13:54;12.40;99.90
22682;DHT22;11508;50.856;4.380;2024-02-14T14:16:21;12.50;99.90
22682;DHT22;11508;50.856;4.380;2024-02-14T14:18:51;12.50;99.90
22682;DHT22;11508;50.856;4.380;2024-02-14T14:21:17;12.70;99.90
22682;DHT22;11508;50.856;4.380;2024-02-14T14:23:44;12.50;99.90
22682;DHT22;11508;50.856;4.380;2024-02-14T14:26:10;12.70;99.90
22682;DHT22;11508;50.856;4.380;2024-02-14T14:28:35;12.60;99.90
22682;DHT22;11508;50.856;4.380;2024-02-14T14:31:01;12.60;99.90
22682;DHT22;11508;50.856;4.380;2024-02-14T14:33:28;12.50;99.90
22682;DHT22;11508;50.856;4.380;2024-02-14T14:35:53;12.60;99.90
22682;DHT22;11508;50.856;4.380;2024-02-14T14:38:20;12.60;99.90
22682;DHT22;11508;50.856;4.380;2024-02-14T14:40:47;12.70;99.90
22682;DHT22;11508;50.856;4.380;2024-02-14T14:43:14;12.70;99.90
22682;DHT22;11508;50.856;4.380;2024-02-14T14:45:40;12.70;99.90
22682;DHT22;11508;50.856;4.380;2024-02-14T14:48:07;12.80;99.90
22682;DHT22;11508;50.856;4.380;2024-02-14T14:50:37;12.80;99.90
22682;DHT22;11508;50.856;4.380;2024-02-14T14:53:04;12.80;99.90
22682;DHT22;11508;50.856;4.380;2024-02-14T14:55:53;12.70;99.90
22682;DHT22;11508;50.856;4.380;2024-02-14T14:58:21;12.70;99.90
22682;DHT22;11508;50.856;4.380;2024-02-14T15:00:48;12.80;99.90
22682;DHT22;11508;50.856;4.380;2024-02-14T15:03:15;12.80;99.90
22682;DHT22;11508;50.856;4.380;2024-02-14T15:05:41;12.80;99.90
22682;DHT22;11508;50.856;4.380;2024-02-14T15:08:07;12.80;99.90
22682;DHT22;11508;50.856;4.380;2024-02-14T15:10:34;12.90;99.90
22682;DHT22;11508;50.856;4.380;2024-02-14T15:13:00;12.80;99.90
22682;DHT22;11508;50.856;4.380;2024-02-14T15:15:26;12.90;99.90
22682;DHT22;11508;50.856;4.380;2024-02-14T15:17:51;12.90;99.90
22682;DHT22;11508;50.856;4.380;2024-02-14T15:20:18;12.90;99.90
22682;DHT22;11508;50.856;4.380;2024-02-14T15:22:44;12.80;99.90
22682;DHT22;11508;50.856;4.380;2024-02-14T15:25:09;12.80;99.90
22682;DHT22;11508;50.856;4.380;2024-02-14T15:27:36;12.80;99.90
22682;DHT22;11508;50.856;4.380;2024-02-14T15:30:06;12.80;99.90
22682;DHT22;11508;50.856;4.380;2024-02-14T15:32:51;12.80;99.90
22682;DHT22;11508;50.856;4.380;2024-02-14T15:35:35;12.80;99.90
22682;DHT22;11508;50.856;4.380;2024-02-14T15:38:01;12.80;99.90
22682;DHT22;11508;50.856;4.380;2024-02-14T15:40:26;12.80;99.90
22682;DHT22;11508;50.856;4.380;2024-02-14T15:42:53;12.90;99.90
22682;DHT22;11508;50.856;4.380;2024-02-14T15:45:18;12.80;99.90
22682;DHT22;11508;50.856;4.380;2024-02-14T15:47:46;12.90;99.90
22682;DHT22;11508;50.856;4.380;2024-02-14T15:50:12;12.90;99.90
22682;DHT22;11508;50.856;4.380;2024-02-14T15:52:38;12.90;99.90
22682;DHT22;11508;50.856;4.380;2024-02-14T15:55:05;12.90;99.90
22682;DHT22;11508;50.856;4.380;2024-02-14T15:57:34;12.80;99.90
22682;DHT22;11508;50.856;4.380;2024-02-14T16:00:02;12.90;99.90
22682;DHT22;11508;50.856;4.380;2024-02-14T16:02:31;12.90;99.90
22682;DHT22;11508;50.856;4.380;2024-02-14T16:04:57;12.90;99.90
22682;DHT22;11508;50.856;4.380;2024-02-14T16:07:23;12.90;99.90
22682;DHT22;11508;50.856;4.380;2024-02-14T16:09:49;13.00;99.90
22682;DHT22;11508;50.856;4.380;2024-02-14T16:12:15;13.00;99.90
22682;DHT22;11508;50.856;4.380;2024-02-14T16:14:44;13.00;99.90
22682;DHT22;11508;50.856;4.380;2024-02-14T16:17:10;12.90;99.90
22682;DHT22;11508;50.856;4.380;2024-02-14T16:19:36;13.00;99.90
22682;DHT22;11508;50.856;4.380;2024-02-14T16:22:02;13.00;99.90
22682;DHT22;11508;50.856;4.380;2024-02-14T16:24:30;13.00;99.90
22682;DHT22;11508;50.856;4.380;2024-02-14T16:26:56;13.00;99.90
22682;DHT22;11508;50.856;4.380;2024-02-14T16:29:23;13.00;99.90
22682;DHT22;11508;50.856;4.380;2024-02-14T16:31:49;13.10;99.90
22682;DHT22;11508;50.856;4.380;2024-02-14T16:34:15;13.00;99.90
22682;DHT22;11508;50.856;4.380;2024-02-14T16:36:42;13.10;99.90
22682;DHT22;11508;50.856;4.380;2024-02-14T16:39:07;13.10;99.90
22682;DHT22;11508;50.856;4.380;2024-02-14T16:41:33;13.20;99.90
22682;DHT22;11508;50.856;4.380;2024-02-14T16:44:02;13.10;99.90
22682;DHT22;11508;50.856;4.380;2024-02-14T16:46:28;13.00;99.90
22682;DHT22;11508;50.856;4.380;2024-02-14T16:48:54;13.00;99.90
22682;DHT22;11508;50.856;4.380;2024-02-14T16:51:20;13.00;99.90
22682;DHT22;11508;50.856;4.380;2024-02-14T16:53:46;13.10;99.90
22682;DHT22;11508;50.856;4.380;2024-02-14T16:56:12;13.10;99.90
22682;DHT22;11508;50.856;4.380;2024-02-14T16:58:38;13.20;99.90
22682;DHT22;11508;50.856;4.380;2024-02-14T17:01:05;13.10;99.90
22682;DHT22;11508;50.856;4.380;2024-02-14T17:03:33;13.10;99.90
22682;DHT22;11508;50.856;4.380;2024-02-14T17:05:59;13.10;99.90
22682;DHT22;11508;50.856;4.380;2024-02-14T17:08:29;13.10;99.90
22682;DHT22;11508;50.856;4.380;2024-02-14T17:10:58;13.10;99.90